Time;durP1;ratioP1;P1;durP2;ratioP2;P2;SDS_P1;SDS_P2;PMS_P1;PMS_P2;Temp;Humidity;BMP_temperature;BMP_pressure;BME280_temperature;BME280_humidity;BME280_pressure;Samples;Min_cycle;Max_cycle;Signal;HPM_P1;HPM_P2
2023/08/17 00:00:36;;;;;;;;;10.75;10.00;;;;;25.00;55.04;101575.44;2005395;28;2765849;-71
2023/08/17 00:01:47;;;;;;;;;12.00;12.00;;;;;25.00;55.09;101576.28;2003217;28;2799229;-72
2023/08/17 00:02:59;;;;;;;;;13.00;10.00;;;;;25.00;55.22;101575.44;1998757;28;2787740;-71
2023/08/17 00:04:09;;;;;;;;;9.50;9.00;;;;;25.00;55.43;101575.44;1984758;28;2747155;-71
2023/08/17 00:05:20;;;;;;;;;12.00;11.00;;;;;25.00;55.46;101578.13;1999418;28;2784096;-71
2023/08/17 00:06:31;;;;;;;;;13.00;11.50;;;;;25.00;55.56;101572.75;2023179;28;2781585;-71
2023/08/17 00:07:42;;;;;;;;;12.50;12.00;;;;;25.00;55.29;101572.75;2013079;28;2788808;-71
2023/08/17 00:08:55;;;;;;;;;11.60;10.80;;;;;25.00;55.79;101578.13;2019151;28;3513736;-71
2023/08/17 00:10:06;;;;;;;;;13.33;11.67;;;;;25.00;55.59;101579.00;2020513;28;3511728;-71
2023/08/17 00:11:17;;;;;;;;;10.00;10.00;;;;;24.99;55.41;101577.22;2020124;28;2784627;-71
2023/08/17 00:12:28;;;;;;;;;11.25;11.25;;;;;24.99;55.38;101573.72;2007913;28;2784626;-71
2023/08/17 00:13:40;;;;;;;;;14.33;12.00;;;;;25.00;55.79;101567.38;2007058;28;2792992;-71
2023/08/17 00:14:52;;;;;;;;;15.33;13.67;;;;;25.00;55.65;101567.38;2014998;28;3519359;-71
2023/08/17 00:16:03;;;;;;;;;10.00;10.00;;;;;25.00;55.48;101567.38;2017607;28;2789902;-72
2023/08/17 00:17:14;;;;;;;;;11.50;11.50;;;;;25.00;55.44;101572.75;1996192;28;2795007;-71
2023/08/17 00:18:26;;;;;;;;;12.00;11.40;;;;;24.99;55.87;101579.91;2011775;28;3517906;-71
2023/08/17 00:19:37;;;;;;;;;12.00;12.00;;;;;25.00;56.17;101570.06;2021087;28;2790245;-71
2023/08/17 00:20:48;;;;;;;;;10.00;10.00;;;;;25.00;55.52;101572.75;2001032;28;2782542;-71
2023/08/17 00:21:59;;;;;;;;;13.50;13.00;;;;;25.00;55.78;101572.75;1996543;28;2791973;-71
2023/08/17 00:23:10;;;;;;;;;10.40;9.20;;;;;25.00;55.52;101567.38;2013973;28;1818058;-72
2023/08/17 00:24:21;;;;;;;;;12.00;12.00;;;;;24.99;55.44;101568.34;2007185;28;2817385;-72
2023/08/17 00:25:32;;;;;;;;;14.00;11.00;;;;;25.00;55.61;101565.53;2002296;28;2786730;-72
2023/08/17 00:26:44;;;;;;;;;14.00;12.40;;;;;24.99;55.94;101565.66;2005172;28;2791989;-72
2023/08/17 00:27:54;;;;;;;;;11.50;11.00;;;;;24.99;55.84;101568.34;2006364;28;2797142;-72
2023/08/17 00:29:05;;;;;;;;;13.00;11.00;;;;;24.99;55.79;101571.03;2010236;28;2798140;-72
2023/08/17 00:30:16;;;;;;;;;12.00;12.00;;;;;25.00;55.83;101567.38;2009161;28;2796113;-71
2023/08/17 00:31:27;;;;;;;;;13.00;11.00;;;;;24.99;55.55;101560.28;2007322;28;2799179;-70
2023/08/17 00:32:38;;;;;;;;;15.00;15.00;;;;;24.98;55.90;101559.41;2002111;28;2799238;-70
2023/08/17 00:33:50;;;;;;;;;13.25;12.00;;;;;24.98;55.91;101564.78;2005301;28;2787744;-71
2023/08/17 00:35:01;;;;;;;;;11.50;11.50;;;;;24.98;55.50;101564.78;2015643;28;1827373;-71
2023/08/17 00:36:12;;;;;;;;;12.67;11.00;;;;;24.98;55.97;101562.09;1983697;28;2790908;-71
2023/08/17 00:37:22;;;;;;;;;12.50;12.00;;;;;24.97;55.90;101557.69;2013801;28;2787761;-71
2023/08/17 00:38:33;;;;;;;;;13.00;11.00;;;;;24.97;55.77;101560.38;2030254;28;2803376;-70
2023/08/17 00:39:44;;;;;;;;;14.25;13.00;;;;;24.98;55.81;101566.63;2003949;28;2781482;-70
2023/08/17 00:40:55;;;;;;;;;12.00;12.00;;;;;24.97;55.86;101551.44;2002498;28;2787771;-70
2023/08/17 00:42:07;;;;;;;;;12.00;11.00;;;;;24.97;55.95;101556.81;2002943;28;2784615;-70
2023/08/17 00:43:18;;;;;;;;;13.00;12.00;;;;;24.98;55.99;101566.63;1983098;28;2792281;-70
2023/08/17 00:44:29;;;;;;;;;11.00;11.00;;;;;24.97;56.05;101567.59;2003121;28;2789835;-70
2023/08/17 00:45:41;;;;;;;;;12.00;11.00;;;;;24.97;56.09;101565.75;2002785;28;2791977;-71
2023/08/17 00:46:52;;;;;;;;;17.67;12.00;;;;;24.96;56.07;101564.06;1983600;28;3530415;-71
2023/08/17 00:48:07;;;;;;;;;15.00;13.20;;;;;24.98;55.87;101569.31;2026800;28;3526260;-71
2023/08/17 00:49:18;;;;;;;;;14.00;13.00;;;;;24.95;56.20;101565.91;2012267;28;2776289;-71
2023/08/17 00:50:29;;;;;;;;;9.00;9.00;;;;;24.97;55.78;101570.28;2008392;28;2762784;-71
2023/08/17 00:51:40;;;;;;;;;13.50;11.00;;;;;24.97;55.88;101570.28;1992146;28;2796443;-71
2023/08/17 00:52:53;;;;;;;;;13.60;13.60;;;;;24.97;56.58;101572.97;2005315;28;3515832;-71
2023/08/17 00:54:04;;;;;;;;;10.00;10.00;;;;;24.95;56.21;101571.28;2013781;28;2777344;-70
2023/08/17 00:55:15;;;;;;;;;13.00;13.00;;;;;24.95;56.08;101571.28;1994853;28;2806565;-70
2023/08/17 00:56:26;;;;;;;;;13.00;13.00;;;;;24.95;56.05;101573.97;2005757;28;2789855;-70
2023/08/17 00:57:37;;;;;;;;;12.00;11.00;;;;;24.97;56.15;101572.97;1988578;28;2802345;-70
2023/08/17 00:58:49;;;;;;;;;15.50;10.00;;;;;24.96;56.14;101574.81;2017295;28;2792964;-70
2023/08/17 01:00:00;;;;;;;;;14.50;14.00;;;;;24.97;56.32;101570.28;1984409;28;2805479;-70
2023/08/17 01:01:12;;;;;;;;;12.67;11.67;;;;;24.95;56.08;101567.72;1984265;28;2809163;-71
2023/08/17 01:02:22;;;;;;;;;13.00;11.00;;;;;24.97;56.24;101567.59;2010580;28;2790917;-71
2023/08/17 01:03:34;;;;;;;;;11.80;9.20;;;;;24.96;55.89;101569.44;2020327;28;1829494;-71
2023/08/17 01:04:45;;;;;;;;;14.50;12.00;;;;;24.95;56.11;101568.59;2010319;28;2785665;-71
2023/08/17 01:05:57;;;;;;;;;14.00;12.00;;;;;24.95;56.18;101571.28;1997477;28;2816917;-71
2023/08/17 01:07:07;;;;;;;;;13.00;13.00;;;;;24.95;56.26;101571.28;2013414;28;2786750;-71
2023/08/17 01:08:18;;;;;;;;;12.00;12.00;;;;;24.94;56.36;101572.22;2033629;28;2793408;-71
2023/08/17 01:09:30;;;;;;;;;11.60;10.40;;;;;24.94;56.28;101563.34;2005386;28;2796069;-73
2023/08/17 01:11:18;;;;;;;;;16.00;13.67;;;;;24.94;56.07;101563.34;2015775;28;2814815;-71
2023/08/17 01:12:42;;;;;;;;;12.00;11.50;;;;;24.93;56.20;101567.84;2015224;28;2792960;-71
2023/08/17 01:13:58;;;;;;;;;15.00;13.50;;;;;24.92;56.16;101558.06;1993084;28;2800305;-71
2023/08/17 01:15:27;;;;;;;;;11.00;11.00;;;;;24.93;56.38;101556.25;1995561;28;2787775;-72
2023/08/17 01:16:52;;;;;;;;;10.00;10.00;;;;;24.93;56.43;101564.31;2020179;28;2782556;-73
2023/08/17 01:18:25;;;;;;;;;11.00;11.00;;;;;24.92;56.31;101559.91;2007720;28;2787787;-72
2023/08/17 01:19:37;;;;;;;;;14.50;12.00;;;;;24.92;56.39;101560.75;1997185;28;2806540;-72
2023/08/17 01:20:49;;;;;;;;;7.50;7.50;;;;;24.92;56.30;101560.75;2008429;28;2745061;-71
2023/08/17 01:22:08;;;;;;;;;12.00;12.00;;;;;24.92;56.21;101563.44;1993645;28;2814881;-72
2023/08/17 01:23:19;;;;;;;;;15.00;13.50;;;;;24.93;56.39;101561.63;1992896;28;2805486;-71
2023/08/17 01:24:30;;;;;;;;;16.00;13.00;;;;;24.91;56.60;101553.69;1990176;28;2801320;-72
2023/08/17 01:25:41;;;;;;;;;13.00;11.00;;;;;24.92;56.91;101550.00;2002862;28;2797157;-72
2023/08/17 01:26:52;;;;;;;;;14.80;12.20;;;;;24.90;56.57;101557.34;2005535;28;2811817;-71
2023/08/17 01:28:04;;;;;;;;;11.50;11.50;;;;;24.92;56.46;101554.53;2012065;28;2799567;-71
2023/08/17 01:29:15;;;;;;;;;13.50;10.00;;;;;24.90;56.59;101554.66;1990935;28;2788063;-71
2023/08/17 01:30:26;;;;;;;;;17.00;14.67;;;;;24.90;56.38;101557.34;1992547;28;3541962;-73
2023/08/17 01:32:18;;;;;;;;;14.20;14.00;;;;;24.90;56.45;101557.34;2036066;28;3530413;-73
2023/08/17 01:33:43;;;;;;;;;13.50;11.00;;;;;24.90;56.60;101560.03;2015657;28;2791958;-73
2023/08/17 01:35:04;;;;;;;;;15.67;13.67;;;;;24.89;56.71;101550.25;2001793;28;3533571;-73
2023/08/17 01:36:39;;;;;;;;;12.67;12.67;;;;;24.89;56.54;101547.56;2021003;28;3544399;-73
2023/08/17 01:37:52;;;;;;;;;14.50;13.00;;;;;24.87;56.46;101552.22;2020060;28;2781533;-72
2023/08/17 01:39:04;;;;;;;;;14.00;13.00;;;;;24.87;56.89;101560.28;2012218;28;2802347;-72
2023/08/17 01:40:16;;;;;;;;;15.00;13.00;;;;;24.86;56.52;101553.22;2008731;28;2802354;-72
2023/08/17 01:41:29;;;;;;;;;13.67;13.33;;;;;24.87;56.67;101552.22;1989171;28;2808683;-72
2023/08/17 01:42:41;;;;;;;;;18.50;14.50;;;;;24.86;56.75;101555.91;2018951;28;2814870;-72
2023/08/17 01:43:53;;;;;;;;;15.00;13.00;;;;;24.86;56.64;101555.91;1985151;28;2794017;-72
2023/08/17 01:45:04;;;;;;;;;12.00;12.00;;;;;24.86;56.55;101552.34;1995427;28;2784639;-72
2023/08/17 01:46:16;;;;;;;;;15.40;14.40;;;;;24.83;56.71;101551.63;2019158;28;3537738;-72
2023/08/17 01:47:27;;;;;;;;;13.00;13.00;;;;;24.83;56.88;101557.00;2017132;28;2810667;-71
2023/08/17 01:48:39;;;;;;;;;16.00;14.40;;;;;24.83;56.54;101553.44;2036366;28;3541900;-71
2023/08/17 01:49:50;;;;;;;;;14.00;12.60;;;;;24.83;56.99;101558.84;2039732;28;3505808;-71
2023/08/17 01:51:02;;;;;;;;;15.00;13.33;;;;;24.82;56.99;101557.09;2033492;28;3528367;-71
2023/08/17 01:52:14;;;;;;;;;13.60;13.20;;;;;24.80;57.27;101546.50;2036458;28;3519983;-72
2023/08/17 01:53:26;;;;;;;;;14.33;14.33;;;;;24.81;56.89;101550.03;2033400;28;3530945;-72
2023/08/17 01:54:38;;;;;;;;;15.67;15.00;;;;;24.80;56.92;101551.00;2038271;28;3524196;-72
2023/08/17 01:55:50;;;;;;;;;18.67;18.00;;;;;24.78;56.75;101556.53;2029995;28;3564832;-72
2023/08/17 01:57:01;;;;;;;;;13.67;13.33;;;;;24.78;56.70;101547.59;2023446;28;2801461;-71
2023/08/17 01:58:13;;;;;;;;;17.00;14.00;;;;;24.76;57.11;101549.56;2007058;28;3551310;-71
2023/08/17 01:59:24;;;;;;;;;9.00;9.00;;;;;24.75;57.45;101555.91;2031692;28;2771055;-71
2023/08/17 02:00:36;;;;;;;;;15.20;14.40;;;;;24.73;57.10;101550.66;2011169;28;3543950;-71
2023/08/17 02:01:48;;;;;;;;;15.80;15.00;;;;;24.71;57.09;101558.00;2038435;28;3550194;-71
2023/08/17 02:03:00;;;;;;;;;13.00;13.00;;;;;24.70;56.56;101554.44;2028817;28;3531507;-71
2023/08/17 02:04:12;;;;;;;;;19.33;13.00;;;;;24.70;56.95;101556.28;2031200;28;2801336;-71
2023/08/17 02:05:23;;;;;;;;;13.00;13.00;;;;;24.70;56.91;101554.44;2021740;28;2808632;-71
2023/08/17 02:06:35;;;;;;;;;16.00;15.67;;;;;24.69;57.05;101549.22;2002956;28;3560641;-71
2023/08/17 02:07:47;;;;;;;;;15.80;15.80;;;;;24.69;57.24;101552.72;2007487;28;3529360;-72
2023/08/17 02:08:59;;;;;;;;;14.20;13.40;;;;;24.68;56.99;101555.56;2025788;28;3526244;-72
2023/08/17 02:10:11;;;;;;;;;8.80;8.80;;;;;24.67;57.09;101557.38;2049383;28;1821186;-72
2023/08/17 02:11:22;;;;;;;;;15.50;13.50;;;;;24.66;57.44;101558.38;2010548;28;2793342;-72
2023/08/17 02:12:33;;;;;;;;;16.33;14.67;;;;;24.65;57.14;101556.66;2024443;28;3548170;-72
2023/08/17 02:13:44;;;;;;;;;21.60;18.40;;;;;24.65;57.44;101572.78;2012799;28;2836771;-72
2023/08/17 02:14:56;;;;;;;;;13.50;13.00;;;;;24.64;56.98;101564.84;2025558;28;2808553;-72
2023/08/17 02:16:07;;;;;;;;;15.00;13.00;;;;;24.64;57.40;101564.84;2004562;28;2782013;-72
2023/08/17 02:17:21;;;;;;;;;14.67;14.00;;;;;24.62;57.22;101567.63;2006244;28;3516855;-72
2023/08/17 02:18:34;;;;;;;;;15.00;14.33;;;;;24.61;57.17;101572.19;2007602;28;2799186;-72
2023/08/17 02:19:47;;;;;;;;;17.00;14.00;;;;;24.60;57.25;101573.16;2007734;28;3539766;-72
2023/08/17 02:20:58;;;;;;;;;18.00;17.00;;;;;24.59;57.39;101570.59;2012574;28;2830450;-72
2023/08/17 02:22:09;;;;;;;;;13.67;13.00;;;;;24.58;57.22;101572.44;2004485;28;2817358;-72
2023/08/17 02:23:21;;;;;;;;;15.00;15.00;;;;;24.58;57.27;101574.25;2007692;28;2798355;-72
2023/08/17 02:24:31;;;;;;;;;15.50;15.50;;;;;24.57;57.32;101578.75;2017652;28;2811740;-72
2023/08/17 02:25:43;;;;;;;;;16.00;16.00;;;;;24.57;57.39;101577.94;2005981;28;3537706;-71
2023/08/17 02:26:55;;;;;;;;;16.33;15.33;;;;;24.57;57.38;101578.75;2025581;28;3543987;-71
2023/08/17 02:28:07;;;;;;;;;17.67;15.67;;;;;24.55;57.42;101572.66;2025304;28;3553360;-71
2023/08/17 02:29:19;;;;;;;;;17.67;17.67;;;;;24.54;57.34;101584.41;2030195;28;3565854;-71
2023/08/17 02:30:31;;;;;;;;;19.80;17.20;;;;;24.56;57.41;101581.59;2004360;28;3569445;-70
2023/08/17 02:31:42;;;;;;;;;19.60;18.20;;;;;24.54;57.47;101584.41;2020205;28;3566867;-70
2023/08/17 02:32:55;;;;;;;;;20.00;17.20;;;;;24.54;57.41;101581.72;2030600;28;3569038;-71
2023/08/17 02:34:07;;;;;;;;;14.00;13.60;;;;;24.53;57.34;101590.75;2024477;28;3529357;-71
2023/08/17 02:35:19;;;;;;;;;16.33;14.00;;;;;24.53;57.53;101584.50;2011200;28;2814845;-71
2023/08/17 02:36:29;;;;;;;;;19.00;17.00;;;;;24.52;57.82;101585.50;2011258;28;2829385;-71
2023/08/17 02:37:41;;;;;;;;;14.00;12.60;;;;;24.53;57.52;101589.88;2006019;28;3533567;-71
2023/08/17 02:38:53;;;;;;;;;16.40;14.80;;;;;24.51;57.84;101590.00;2027704;28;3543968;-72
2023/08/17 02:40:05;;;;;;;;;15.00;14.80;;;;;24.51;57.67;101590.00;2030289;28;3532497;-73
2023/08/17 02:41:17;;;;;;;;;17.33;14.33;;;;;24.50;57.73;101581.09;2006314;28;3546051;-73
2023/08/17 02:42:29;;;;;;;;;16.40;15.80;;;;;24.50;57.39;101583.78;2029419;28;3554364;-73
2023/08/17 02:43:41;;;;;;;;;18.20;17.40;;;;;24.48;58.12;101585.75;2030955;28;3565830;-73
2023/08/17 02:44:52;;;;;;;;;18.40;15.20;;;;;24.50;57.50;101580.22;2029903;28;3541873;-73
2023/08/17 02:46:07;;;;;;;;;15.80;14.60;;;;;24.49;57.30;101590.16;2030949;28;3539824;-72
2023/08/17 02:47:18;;;;;;;;;19.67;18.00;;;;;24.50;57.65;101581.09;2008623;28;3570028;-72
2023/08/17 02:48:30;;;;;;;;;18.67;16.33;;;;;24.50;57.74;101589.16;2001219;28;3562724;-72
2023/08/17 02:49:42;;;;;;;;;16.20;15.60;;;;;24.51;57.69;101587.31;2004960;28;3538744;-72
2023/08/17 02:50:54;;;;;;;;;15.40;15.00;;;;;24.50;57.78;101590.97;2029832;28;3531460;-72
2023/08/17 02:52:05;;;;;;;;;16.00;15.40;;;;;24.50;57.76;101586.47;2014241;28;2831523;-73
2023/08/17 02:53:16;;;;;;;;;18.00;15.80;;;;;24.50;57.52;101586.47;2031934;28;3560613;-73
2023/08/17 02:54:28;;;;;;;;;15.00;15.00;;;;;24.50;57.68;101589.16;2030125;28;3528319;-73
2023/08/17 02:55:40;;;;;;;;;17.00;15.40;;;;;24.51;57.62;101584.63;2029874;28;3526231;-73
2023/08/17 02:56:52;;;;;;;;;17.00;15.67;;;;;24.49;57.58;101587.47;2024495;28;3554437;-73
2023/08/17 02:58:04;;;;;;;;;14.33;13.33;;;;;24.48;57.64;101588.44;2024101;28;3523182;-72
2023/08/17 02:59:16;;;;;;;;;18.00;18.00;;;;;24.48;57.46;101591.13;2023759;28;3560638;-72
2023/08/17 03:00:28;;;;;;;;;18.67;15.00;;;;;24.47;57.28;101581.31;2000669;28;3541908;-72
2023/08/17 03:01:39;;;;;;;;;14.33;14.00;;;;;24.45;57.60;101580.59;2024747;28;3533571;-72
2023/08/17 03:02:52;;;;;;;;;18.00;15.20;;;;;24.44;57.57;101584.28;2029496;28;3550233;-72
2023/08/17 03:04:04;;;;;;;;;15.00;14.33;;;;;24.43;58.02;101587.94;2012162;28;2808569;-71
2023/08/17 03:05:14;;;;;;;;;19.50;16.50;;;;;24.42;57.90;101586.22;2011509;28;2822098;-71
2023/08/17 03:06:26;;;;;;;;;20.00;18.80;;;;;24.39;57.70;101589.16;2008441;28;3565814;-71
2023/08/17 03:07:38;;;;;;;;;17.20;17.20;;;;;24.38;57.40;101585.63;2006445;28;3569309;-73
2023/08/17 03:08:52;;;;;;;;;17.60;14.40;;;;;24.38;57.73;101585.63;2012051;28;3536660;-71
2023/08/17 03:10:03;;;;;;;;;14.50;12.50;;;;;24.37;57.78;101580.38;2019084;28;2789838;-71
2023/08/17 03:11:14;;;;;;;;;15.80;15.00;;;;;24.36;57.90;101570.59;2006516;28;3541907;-70
2023/08/17 03:12:26;;;;;;;;;14.00;14.00;;;;;24.37;57.43;101580.38;2039125;28;3528342;-70
2023/08/17 03:13:38;;;;;;;;;14.60;14.40;;;;;24.38;57.65;101565.94;2038935;28;3534569;-71
2023/08/17 03:14:50;;;;;;;;;17.00;17.00;;;;;24.37;57.83;101566.94;2033762;28;3568955;-70
2023/08/17 03:16:02;;;;;;;;;24.80;17.00;;;;;24.36;57.78;101570.59;2013979;28;3574174;-71
2023/08/17 03:17:14;;;;;;;;;18.00;15.67;;;;;24.36;57.99;101573.28;2006545;27;3561714;-71
2023/08/17 03:18:26;;;;;;;;;21.67;17.33;;;;;24.33;58.00;101574.38;1999917;28;3571065;-71
2023/08/17 03:19:37;;;;;;;;;19.67;16.33;;;;;24.33;57.96;101573.50;2008283;28;3563780;-71
2023/08/17 03:20:50;;;;;;;;;21.57;18.57;;;;;24.32;57.82;101569.13;2031232;28;3577284;-71
2023/08/17 03:22:02;;;;;;;;;19.80;17.20;;;;;24.32;57.91;101574.50;2004952;28;3564815;-72
2023/08/17 03:23:14;;;;;;;;;19.33;17.67;;;;;24.30;58.02;101574.59;2019829;28;3575268;-72
2023/08/17 03:24:26;;;;;;;;;17.33;17.00;;;;;24.28;57.94;101568.50;2000071;28;3573153;-72
2023/08/17 03:25:38;;;;;;;;;16.00;16.00;;;;;24.28;58.23;101573.88;2000766;28;3558566;-74
2023/08/17 03:26:50;;;;;;;;;19.67;15.33;;;;;24.28;58.14;101576.56;1997499;28;3558613;-71
2023/08/17 03:28:02;;;;;;;;;24.60;18.60;;;;;24.27;58.24;101572.19;2004556;28;3583561;-71
2023/08/17 03:29:14;;;;;;;;;16.00;15.60;;;;;24.25;57.97;101569.59;2008126;28;3556470;-72
2023/08/17 03:30:25;;;;;;;;;17.80;16.80;;;;;24.24;58.10;101562.50;2019788;28;2831611;-72
2023/08/17 03:31:37;;;;;;;;;18.00;16.33;;;;;24.25;58.18;101566.03;2034058;28;3555398;-72
2023/08/17 03:32:48;;;;;;;;;17.67;16.00;;;;;24.25;58.10;101564.22;1999641;28;3557917;-72
2023/08/17 03:34:01;;;;;;;;;19.00;16.67;;;;;24.26;58.19;101563.28;1998172;28;3566894;-72
2023/08/17 03:35:13;;;;;;;;;20.40;17.40;;;;;24.25;57.84;101563.34;1995707;28;3573140;-72
2023/08/17 03:36:24;;;;;;;;;17.60;16.20;;;;;24.24;58.04;101567.88;1991668;28;3566874;-72
2023/08/17 03:37:37;;;;;;;;;18.80;16.60;;;;;24.24;58.08;101567.88;2006870;28;3566856;-72
2023/08/17 03:38:48;;;;;;;;;15.00;14.33;;;;;24.24;58.29;101564.34;2006015;28;3535753;-72
2023/08/17 03:40:00;;;;;;;;;21.67;17.67;;;;;24.23;57.91;101566.16;2023388;28;3571069;-72
2023/08/17 03:41:12;;;;;;;;;18.00;17.00;;;;;24.22;58.38;101569.84;2004936;28;3558581;-72
2023/08/17 03:42:25;;;;;;;;;21.43;19.14;;;;;24.21;58.43;101570.81;1999208;28;3580420;-71
2023/08/17 03:43:37;;;;;;;;;22.00;18.67;;;;;24.20;58.24;101566.41;2006182;28;3589807;-71
2023/08/17 03:44:48;;;;;;;;;18.80;15.40;;;;;24.19;58.39;101570.06;1998854;28;2824218;-71
2023/08/17 03:46:00;;;;;;;;;19.33;17.67;;;;;24.19;58.80;101559.31;2033972;28;3571046;-71
2023/08/17 03:47:11;;;;;;;;;24.00;18.80;;;;;24.19;58.76;101564.69;1996749;28;2839916;-71
2023/08/17 03:48:22;;;;;;;;;21.00;19.00;;;;;24.19;58.45;101564.69;2016988;28;3579378;-72
2023/08/17 03:49:34;;;;;;;;;18.20;15.80;;;;;24.17;58.22;101567.47;2014998;28;3552299;-75
2023/08/17 03:50:54;;;;;;;;;28.13;23.25;;;;;24.17;58.59;101556.75;2033583;28;3592920;-75
2023/08/17 03:52:06;;;;;;;;;18.67;16.00;;;;;24.16;58.68;101564.94;2007610;28;3554415;-71
2023/08/17 03:53:17;;;;;;;;;22.40;19.80;;;;;24.13;58.53;101562.47;2005432;28;3571022;-71
2023/08/17 03:54:29;;;;;;;;;15.60;14.40;;;;;24.12;58.52;101563.47;2006960;28;3539855;-71
2023/08/17 03:55:46;;;;;;;;;21.20;18.40;;;;;24.11;58.44;101562.63;2029491;28;3575216;-70
2023/08/17 03:56:57;;;;;;;;;19.50;18.50;;;;;24.11;58.77;101564.44;1984850;28;2837757;-69
2023/08/17 03:58:08;;;;;;;;;20.00;18.00;;;;;24.10;58.90;101565.44;1998535;28;3562693;-69
2023/08/17 03:59:20;;;;;;;;;16.00;16.00;;;;;24.09;58.74;101566.38;2000960;28;3550316;-69
2023/08/17 04:00:32;;;;;;;;;14.80;14.20;;;;;24.10;58.59;101566.25;2033993;28;3531486;-69
2023/08/17 04:01:44;;;;;;;;;16.40;16.20;;;;;24.10;58.51;101568.13;2037087;28;3552300;-69
2023/08/17 04:02:56;;;;;;;;;17.67;17.33;;;;;24.09;58.63;101561.88;2024564;28;3565874;-69
2023/08/17 04:04:08;;;;;;;;;17.60;17.00;;;;;24.11;59.07;101561.75;2006932;28;3577283;-70
2023/08/17 04:05:20;;;;;;;;;22.60;21.00;;;;;24.12;58.81;101563.47;2013676;28;3579351;-70
2023/08/17 04:06:32;;;;;;;;;20.00;16.00;;;;;24.13;58.88;101563.34;2008829;28;3561710;-70
2023/08/17 04:07:44;;;;;;;;;28.00;23.00;;;;;24.12;58.74;101560.78;2012166;28;3596061;-70
2023/08/17 04:08:56;;;;;;;;;19.00;17.80;;;;;24.12;58.94;101558.09;2014529;28;3571074;-70
2023/08/17 04:10:08;;;;;;;;;18.80;17.80;;;;;24.10;58.71;101552.84;2010554;28;3565881;-70
2023/08/17 04:11:20;;;;;;;;;19.67;18.67;;;;;24.10;58.92;101562.75;1996770;28;3568986;-70
2023/08/17 04:12:31;;;;;;;;;21.80;19.40;;;;;24.10;58.85;101552.84;2013141;28;3577348;-70
2023/08/17 04:13:43;;;;;;;;;15.60;15.00;;;;;24.10;58.91;101554.69;2012773;28;3526249;-70
2023/08/17 04:14:54;;;;;;;;;19.20;18.00;;;;;24.11;59.18;101556.38;2019104;28;2839943;-70
2023/08/17 04:16:06;;;;;;;;;19.60;16.80;;;;;24.11;58.87;101557.25;2035315;28;3565841;-70
2023/08/17 04:17:17;;;;;;;;;22.60;21.20;;;;;24.13;58.68;101554.41;2021543;27;2835742;-70
2023/08/17 04:18:29;;;;;;;;;22.67;19.33;;;;;24.12;58.99;101558.97;2023458;28;3578320;-71
2023/08/17 04:19:43;;;;;;;;;26.38;24.38;;;;;24.12;58.68;101558.09;2002317;28;3579359;-71
2023/08/17 04:20:54;;;;;;;;;19.00;18.00;;;;;24.11;58.72;101557.25;2006821;28;3565878;-71
2023/08/17 04:22:06;;;;;;;;;23.00;20.00;;;;;24.12;58.91;101558.09;1999761;28;3586737;-71
2023/08/17 04:23:17;;;;;;;;;17.80;17.40;;;;;24.12;58.91;101556.28;1988797;28;2832631;-70
2023/08/17 04:24:29;;;;;;;;;21.20;21.00;;;;;24.14;58.64;101553.47;2028377;28;3577280;-71
2023/08/17 04:25:42;;;;;;;;;22.20;20.60;;;;;24.15;59.06;101558.69;2028194;28;3571024;-70
2023/08/17 04:26:53;;;;;;;;;19.00;16.00;;;;;24.14;58.73;101557.00;1989148;28;3558573;-70
2023/08/17 04:28:05;;;;;;;;;16.40;16.00;;;;;24.14;58.86;101558.84;2007671;28;3551270;-70
2023/08/17 04:29:17;;;;;;;;;25.20;23.00;;;;;24.13;58.79;101562.47;2030290;28;3585609;-71
2023/08/17 04:30:29;;;;;;;;;20.00;18.33;;;;;24.10;58.67;101560.06;2007719;28;3568994;-71
2023/08/17 04:31:41;;;;;;;;;16.80;16.00;;;;;24.08;58.83;101561.97;2011858;28;3558556;-71
2023/08/17 04:32:53;;;;;;;;;21.67;18.00;;;;;24.05;58.71;101563.94;2016584;28;3570059;-71
2023/08/17 04:34:05;;;;;;;;;20.00;18.00;;;;;24.03;58.94;101565.03;2004765;28;3566380;-71
2023/08/17 04:35:16;;;;;;;;;18.33;18.00;;;;;24.00;58.98;101558.06;1995832;28;3562729;-71
2023/08/17 04:36:28;;;;;;;;;19.00;18.00;;;;;23.98;59.12;101560.03;1999317;28;3558641;-72
2023/08/17 04:37:40;;;;;;;;;19.20;17.80;;;;;23.97;59.33;101561.00;2004533;28;3566871;-71
2023/08/17 04:38:52;;;;;;;;;16.40;15.00;;;;;23.94;59.16;101566.63;2006156;28;3548162;-71
2023/08/17 04:40:06;;;;;;;;;22.00;19.00;;;;;23.92;59.31;101573.94;2025279;28;3581534;-71
2023/08/17 04:41:17;;;;;;;;;20.00;18.50;;;;;23.89;59.20;101566.97;1985443;28;2830482;-70
2023/08/17 04:42:28;;;;;;;;;18.33;18.33;;;;;23.87;59.33;101576.13;2001791;28;3575253;-70
2023/08/17 04:43:40;;;;;;;;;17.80;16.40;;;;;23.83;59.25;101570.13;1993114;28;2833655;-70
2023/08/17 04:44:51;;;;;;;;;22.20;20.40;;;;;23.82;59.12;101569.28;2015799;28;3573132;-70
2023/08/17 04:46:02;;;;;;;;;22.40;21.20;;;;;23.80;59.57;101567.69;2020716;28;2837821;-70
2023/08/17 04:47:14;;;;;;;;;22.00;20.00;;;;;23.78;59.76;101573.16;2031618;28;3579383;-70
2023/08/17 04:48:25;;;;;;;;;23.00;20.50;;;;;23.78;59.65;101567.78;1999352;28;2506533;-71
2023/08/17 04:49:37;;;;;;;;;24.00;20.00;;;;;23.76;59.49;101572.41;2005405;28;3568950;-70
2023/08/17 04:50:51;;;;;;;;;23.00;20.67;;;;;23.73;59.84;101575.34;2005776;28;3577343;-70
2023/08/17 04:52:02;;;;;;;;;25.00;18.50;;;;;23.71;59.53;101572.78;1991774;28;2834675;-70
2023/08/17 04:53:13;;;;;;;;;17.67;16.67;;;;;23.69;59.65;101565.81;1982509;28;3560724;-70
2023/08/17 04:54:25;;;;;;;;;25.33;22.00;;;;;23.68;60.03;101566.81;2006039;28;3590869;-70
2023/08/17 04:55:36;;;;;;;;;21.60;21.20;;;;;23.67;60.17;101568.63;1995958;28;2830454;-70
2023/08/17 04:56:48;;;;;;;;;22.67;22.33;;;;;23.67;59.98;101570.44;2031507;28;3580428;-70
2023/08/17 04:58:02;;;;;;;;;24.75;21.13;;;;;23.64;59.75;101560.81;2009001;28;3602267;-70
2023/08/17 04:59:13;;;;;;;;;18.67;18.67;;;;;23.63;59.79;101568.97;2009185;28;3567952;-71
2023/08/17 05:00:30;;;;;;;;;22.57;20.86;;;;;23.60;59.90;101560.19;2000169;28;3579729;-70
2023/08/17 05:01:41;;;;;;;;;22.33;19.33;;;;;23.58;60.18;101567.47;1983565;28;3576338;-70
2023/08/17 05:02:57;;;;;;;;;22.67;21.67;;;;;23.56;59.87;101564.06;2000589;28;3586199;-70
2023/08/17 05:04:08;;;;;;;;;24.33;22.33;;;;;23.54;60.19;101563.31;1988777;28;3577308;-70
2023/08/17 05:05:20;;;;;;;;;22.00;18.50;;;;;23.51;60.44;101555.50;2007272;28;2506478;-70
2023/08/17 05:06:31;;;;;;;;;24.67;24.67;;;;;23.50;59.99;101559.19;1995265;28;3591891;-70
2023/08/17 05:07:43;;;;;;;;;23.33;22.33;;;;;23.48;60.42;101561.09;2004567;28;3580516;-70
2023/08/17 05:08:56;;;;;;;;;23.67;22.67;;;;;23.47;60.47;101565.59;2000814;28;3575802;-71
2023/08/17 05:10:08;;;;;;;;;20.67;20.33;;;;;23.45;60.62;101559.50;1985455;28;3577315;-71
2023/08/17 05:11:19;;;;;;;;;17.33;16.00;;;;;23.44;60.07;101560.44;1992569;28;3542967;-72
2023/08/17 05:12:32;;;;;;;;;22.29;20.43;;;;;23.44;60.23;101559.59;2024428;28;3580417;-72
2023/08/17 05:13:44;;;;;;;;;21.00;18.60;;;;;23.43;60.26;101569.50;2006732;28;3572218;-73
2023/08/17 05:14:56;;;;;;;;;24.00;22.00;;;;;23.42;60.31;101561.53;2027478;28;3582575;-72
2023/08/17 05:16:10;;;;;;;;;26.38;22.00;;;;;23.40;60.35;101564.34;2003549;28;3583561;-72
2023/08/17 05:17:20;;;;;;;;;18.00;16.50;;;;;23.41;60.74;101562.53;2015644;28;2825330;-70
2023/08/17 05:18:32;;;;;;;;;24.67;23.33;;;;;23.40;60.95;101564.34;2001965;28;3583581;-70
2023/08/17 05:19:44;;;;;;;;;21.40;18.40;;;;;23.40;60.78;101558.97;2006916;28;3573992;-70
2023/08/17 05:20:56;;;;;;;;;26.67;24.00;;;;;23.41;60.81;101559.84;2003450;28;3594017;-70
2023/08/17 05:22:11;;;;;;;;;27.00;23.38;;;;;23.41;61.03;101559.84;2003720;28;3583584;-70